KFLG/FLG METAR and TAF weather

Enter ICAO airport designator
Station Type Date Time Source
KFLG METAR 2022/05/25 00:57 UTC NOAA

KFLG 250057Z VRB06G19KT 10SM CLR 19/M14 A3007 RMK AO2 SLP111 T01941139


Station Type Date Time Source
KFLG Decoded METAR 2022/05/25 00:57 UTC NOAA

FLAGSTAFF PULLIAM AIRPORT, AZ, United States (KFLG) 35-08N 111-40W 2134M
May 24, 2022 - 08:57 PM EDT / 2022.05.25 0057 UTC
Wind: Variable at 7 MPH (6 KT) gusting to 22 MPH (19 KT):0
Visibility: 10 mile(s):0
Sky conditions: clear
Temperature: 66.9 F (19.4 C)
Dew Point: 7.0 F (-13.9 C)
Relative Humidity: 9%
Pressure (altimeter): 30.07 in. Hg (1018 hPa)
ob: KFLG 250057Z VRB06G19KT 10SM CLR 19/M14 A3007 RMK AO2 SLP111 T01941139
cycle: 1

Station Type Date Time Source
KFLG TAF 2022/05/24 18:22 UTC NOAA

TAF KFLG 241720Z 2418/2518 04012G22KT P6SM SKC
FM241900 33012G22KT P6SM SKC
FM250200 VRB05KT P6SM FEW250
FM251500 07007KT P6SM FEW250

Example: see airport list